Whidbey Island Naval Air Station /Ault Field/ Airport
KNUW : now visible

Airfield :











YOU CAN JOIN US ON...

 
LOGIN :

Register | Disclaimer

   EN    FR    IT 

 









Legend :    VFR   Marginal VFR   IFR   Intensive IFR   Very Intensive IFR
Visi :
Ceiling :
>= 8 km
>= 3000ft
5 to 8 km
1000 to 3000 ft
1500m to 5 km
500 to 1000 ft
800 to 1500m
200 to 500 ft
< 800m
< 200 ft
Symbols :   Thunderstorms  Fog  Heavy snow  Heavy precipitations  Wind > 20 kt






- Airport Elevation : 47 ft


KNUW - Whidbey Island Naval Air Station /Ault Field/

CURRENT METAR :
  • 271456Z 12005KT 10SM FEW030 OVC060 08/04 A3049 RMK AO2 SLP323 T00780039 58006 $

EXPIRED METARs :
  • 271356Z 12007KT 9SM FEW012 SCT030 OVC060 08/04 A3050 RMK AO2 SLP326 T00780039 $
  • 271256Z 13007KT 10SM FEW010 BKN035 OVC050 08/04 A3050 RMK AO2 SLP328 T00780044 $

TAF TAF KNUW
Valid from the 27 at 07:00 until the 28 at 07:00 UTC


2707/2807 12008KT 9999 VCSH FEW008 SCT020 BKN050 BKN080 640509 641404 540909 QNH3044INS
TEMPO 2707/2713 VRB06KT 8000 -SHRA BR BKN015 OVC030
FM271300 11008KT 9999 SCT015 OVC030 640509 641404 500000 QNH3040INS
TEMPO 2713/2719 6000 -SHRA BR SCT010 OVC022
FM271900 14008KT 9999 FEW020 BKN035 BKN120 600000 QNH3028INS
TEMPO 2801/2807 VRB05KT OVC025 T05/2714Z T10/2722Z FS30158



MET'MAP, your aeronautical weather chart ! - Copyright ORBIFLY December 2007 - Disclaimer

ORBIFLY MET'MAP TEAM :

Programming & Development : Alexandra Zaïnal
Concept & original design : Baudouin d'Aumeries
Assistance for programming : Marc-Olivier Méhu
Technical & hardware support : Manuel Goepfert

Contact : metmap@orbifly.com




SOURCES & CREDITS :

   NOAA       Earth
Advisory